Antonio Macea, Cuba

6:12 PM CDT on August 18, 2017 (GMT -0400)
Guantanamo Bay Naval Air Station | | Change Station

Elev 56 ft 19.91 °N, 75.21 °W | Updated 16 minutes ago

Partly Cloudy
Partly Cloudy
88 °F
Feels Like 103 °F
N
10
Wind Variable Wind from SE

Today
High -- | Low -- °F
--% Chance of Precip.
Yesterday
High -- | Low -- °F
Precip. -- in
Pressure 29.88 in
Visibility 6.2 miles
Clouds Few 3500 ft
Scattered Clouds 9000 ft
Mostly Cloudy 28000 ft
Heat Index 103 °F
Dew Point 79 °F
Humidity 75%
Rainfall 0.00 in
Snow Depth Not available.
6:44 AM 7:29 PM
Waning Crescent, 11% visible
METAR MUGM 182156Z 13009KT 9999 FEW035 SCT090 BKN280 31/26 A2988 RMK SLP118 CB DSNT S T2 SET T03110261
Pressure 29.88 in
Visibility 6.2 miles
Clouds Few 3500 ft
Scattered Clouds 9000 ft
Mostly Cloudy 28000 ft
Heat Index 103 °F
Dew Point 79 °F
Humidity 75%
Rainfall 0.00 in
Snow Depth Not available.
6:44 AM 7:29 PM
Waning Crescent, 11% visible
METAR MUGM 182156Z 13009KT 9999 FEW035 SCT090 BKN280 31/26 A2988 RMK SLP118 CB DSNT S T2 SET T03110261

Get Severe Weather Alerts

Thanks for signing up!

Be on the lookout for a verification email in your inbox.

You'll start receiving the daily forecast at 6 AM.

×

10-Day Weather Forecast

No radar image for this location.
×

Almanac

Astronomy

Aug. 18, 2017 Rise Set
Actual Time
Civil Twilight
Nautical Twilight
Astronomical Twilight
Moon
Length of Visible Light
Length of Day
Tomorrow will be .
, % of the Moon is Illuminated

Today's Extremes

Country Highs Country Lows

Community

WunderPhotos

Category 6

Welcome to Category 6. This is the collective home for Weather Underground's featured writeups by Dr. Jeff Masters (right), Bob Henson (left), Chris Burt, and other regular contributors.

Nearby

Air Quality

  Air Quality AQ Index Pollutant
Not available.

Snow Depth

Station Depth Elevation

Earthquake Activity

City Distance Mag. Time & Date
Minimum magnitude displayed is 2.5.

Coastal Water Temperatures

Place Temperature

Stations

Nearby Weather Stations

Station Location Temp. Windchill Dew Point Humidity Wind Precip. Elev Updated Type